sensor_id;sensor_type;location;lat;lon;timestamp;temperature;humidity
14144;DHT22;7152;48.348;10.980;2024-01-11T00:00:33;-3.50;99.90
14144;DHT22;7152;48.348;10.980;2024-01-11T00:02:59;-3.50;99.90
14144;DHT22;7152;48.348;10.980;2024-01-11T00:05:24;-3.50;99.90
14144;DHT22;7152;48.348;10.980;2024-01-11T00:07:50;-3.50;99.90
14144;DHT22;7152;48.348;10.980;2024-01-11T00:10:16;-3.50;99.90
14144;DHT22;7152;48.348;10.980;2024-01-11T00:12:42;-3.50;99.90
14144;DHT22;7152;48.348;10.980;2024-01-11T00:15:08;-3.50;99.90
14144;DHT22;7152;48.348;10.980;2024-01-11T00:17:34;-3.50;99.90
14144;DHT22;7152;48.348;10.980;2024-01-11T00:20:00;-3.50;99.90
14144;DHT22;7152;48.348;10.980;2024-01-11T00:22:26;-3.50;99.90
14144;DHT22;7152;48.348;10.980;2024-01-11T00:24:53;-3.50;99.90
14144;DHT22;7152;48.348;10.980;2024-01-11T00:27:18;-3.60;99.90
14144;DHT22;7152;48.348;10.980;2024-01-11T00:29:44;-3.50;99.90
14144;DHT22;7152;48.348;10.980;2024-01-11T00:32:10;-3.50;99.90
14144;DHT22;7152;48.348;10.980;2024-01-11T00:34:36;-3.50;99.90
14144;DHT22;7152;48.348;10.980;2024-01-11T00:37:02;-3.50;99.90
14144;DHT22;7152;48.348;10.980;2024-01-11T00:39:28;-3.40;99.90
14144;DHT22;7152;48.348;10.980;2024-01-11T00:41:55;-3.40;99.90
14144;DHT22;7152;48.348;10.980;2024-01-11T00:44:21;-3.50;99.90
14144;DHT22;7152;48.348;10.980;2024-01-11T00:46:47;-3.50;99.90
14144;DHT22;7152;48.348;10.980;2024-01-11T00:49:12;-3.40;99.90
14144;DHT22;7152;48.348;10.980;2024-01-11T00:51:38;-3.40;99.90
14144;DHT22;7152;48.348;10.980;2024-01-11T00:54:04;-3.40;99.90
14144;DHT22;7152;48.348;10.980;2024-01-11T00:56:30;-3.50;99.90
14144;DHT22;7152;48.348;10.980;2024-01-11T00:58:56;-3.50;99.90
14144;DHT22;7152;48.348;10.980;2024-01-11T01:01:22;-3.50;99.90
14144;DHT22;7152;48.348;10.980;2024-01-11T01:03:47;-3.50;99.90
14144;DHT22;7152;48.348;10.980;2024-01-11T01:06:13;-3.50;99.90
14144;DHT22;7152;48.348;10.980;2024-01-11T01:08:39;-3.60;99.90
14144;DHT22;7152;48.348;10.980;2024-01-11T01:11:05;-3.60;99.90
14144;DHT22;7152;48.348;10.980;2024-01-11T01:13:31;-3.50;99.90
14144;DHT22;7152;48.348;10.980;2024-01-11T01:15:56;-3.50;99.90
14144;DHT22;7152;48.348;10.980;2024-01-11T01:18:22;-3.50;99.90
14144;DHT22;7152;48.348;10.980;2024-01-11T01:20:48;-3.50;99.90
14144;DHT22;7152;48.348;10.980;2024-01-11T01:23:14;-3.60;99.90
14144;DHT22;7152;48.348;10.980;2024-01-11T01:25:40;-3.60;99.90
14144;DHT22;7152;48.348;10.980;2024-01-11T01:28:06;-3.60;99.90
14144;DHT22;7152;48.348;10.980;2024-01-11T01:30:31;-3.50;99.90
14144;DHT22;7152;48.348;10.980;2024-01-11T01:32:57;-3.50;99.90
14144;DHT22;7152;48.348;10.980;2024-01-11T01:35:23;-3.60;99.90
14144;DHT22;7152;48.348;10.980;2024-01-11T01:37:49;-3.60;99.90
14144;DHT22;7152;48.348;10.980;2024-01-11T01:40:15;-3.60;99.90
14144;DHT22;7152;48.348;10.980;2024-01-11T01:42:42;-3.60;99.90
14144;DHT22;7152;48.348;10.980;2024-01-11T01:45:09;-3.60;99.90
14144;DHT22;7152;48.348;10.980;2024-01-11T01:47:36;-3.60;99.90
14144;DHT22;7152;48.348;10.980;2024-01-11T01:50:02;-3.60;99.90
14144;DHT22;7152;48.348;10.980;2024-01-11T01:52:29;-3.70;99.90
14144;DHT22;7152;48.348;10.980;2024-01-11T01:54:55;-3.70;99.90
14144;DHT22;7152;48.348;10.980;2024-01-11T01:57:23;-3.70;99.90
14144;DHT22;7152;48.348;10.980;2024-01-11T01:59:51;-3.70;99.90
14144;DHT22;7152;48.348;10.980;2024-01-11T02:02:20;-3.80;99.90
14144;DHT22;7152;48.348;10.980;2024-01-11T02:04:47;-3.80;99.90
14144;DHT22;7152;48.348;10.980;2024-01-11T02:07:13;-3.70;99.90
14144;DHT22;7152;48.348;10.980;2024-01-11T02:09:40;-3.70;99.90
14144;DHT22;7152;48.348;10.980;2024-01-11T02:12:06;-3.70;99.90
14144;DHT22;7152;48.348;10.980;2024-01-11T02:14:40;-3.70;99.90
14144;DHT22;7152;48.348;10.980;2024-01-11T02:17:06;-3.70;99.90
14144;DHT22;7152;48.348;10.980;2024-01-11T02:19:32;-3.70;99.90
14144;DHT22;7152;48.348;10.980;2024-01-11T02:22:07;-3.80;99.90
14144;DHT22;7152;48.348;10.980;2024-01-11T02:24:33;-3.80;99.90
14144;DHT22;7152;48.348;10.980;2024-01-11T02:27:04;-3.80;99.90
14144;DHT22;7152;48.348;10.980;2024-01-11T02:29:34;-3.80;99.90
14144;DHT22;7152;48.348;10.980;2024-01-11T02:32:01;-3.90;99.90
14144;DHT22;7152;48.348;10.980;2024-01-11T02:34:28;-3.90;99.90
14144;DHT22;7152;48.348;10.980;2024-01-11T02:36:55;-3.90;99.90
14144;DHT22;7152;48.348;10.980;2024-01-11T02:39:22;-3.90;99.90
14144;DHT22;7152;48.348;10.980;2024-01-11T02:41:50;-3.80;99.90
14144;DHT22;7152;48.348;10.980;2024-01-11T02:44:16;-3.80;99.90
14144;DHT22;7152;48.348;10.980;2024-01-11T02:46:43;-3.80;99.90
14144;DHT22;7152;48.348;10.980;2024-01-11T02:49:09;-3.80;99.90
14144;DHT22;7152;48.348;10.980;2024-01-11T02:51:34;-3.80;99.90
14144;DHT22;7152;48.348;10.980;2024-01-11T02:54:01;-3.80;99.90
14144;DHT22;7152;48.348;10.980;2024-01-11T02:56:27;-3.80;99.90
14144;DHT22;7152;48.348;10.980;2024-01-11T02:58:53;-3.80;99.90
14144;DHT22;7152;48.348;10.980;2024-01-11T03:01:19;-3.80;99.90
14144;DHT22;7152;48.348;10.980;2024-01-11T03:03:45;-3.80;99.90
14144;DHT22;7152;48.348;10.980;2024-01-11T03:06:10;-3.80;99.90
14144;DHT22;7152;48.348;10.980;2024-01-11T03:08:36;-3.70;99.90
14144;DHT22;7152;48.348;10.980;2024-01-11T03:11:02;-3.70;99.90
14144;DHT22;7152;48.348;10.980;2024-01-11T03:13:28;-3.70;99.90
14144;DHT22;7152;48.348;10.980;2024-01-11T03:15:54;-3.70;99.90
14144;DHT22;7152;48.348;10.980;2024-01-11T03:18:20;-3.70;99.90
14144;DHT22;7152;48.348;10.980;2024-01-11T03:20:46;-3.70;99.90
14144;DHT22;7152;48.348;10.980;2024-01-11T03:23:11;-3.70;99.90
14144;DHT22;7152;48.348;10.980;2024-01-11T03:25:37;-3.60;99.90
14144;DHT22;7152;48.348;10.980;2024-01-11T03:28:03;-3.60;99.90
14144;DHT22;7152;48.348;10.980;2024-01-11T03:30:30;-3.60;99.90
14144;DHT22;7152;48.348;10.980;2024-01-11T03:32:56;-3.50;99.90
14144;DHT22;7152;48.348;10.980;2024-01-11T03:35:21;-3.50;99.90
14144;DHT22;7152;48.348;10.980;2024-01-11T03:37:47;-3.50;99.90
14144;DHT22;7152;48.348;10.980;2024-01-11T03:40:13;-3.50;99.90
14144;DHT22;7152;48.348;10.980;2024-01-11T03:42:41;-3.50;99.90
14144;DHT22;7152;48.348;10.980;2024-01-11T03:45:07;-3.50;99.90
14144;DHT22;7152;48.348;10.980;2024-01-11T03:47:33;-3.60;99.90
14144;DHT22;7152;48.348;10.980;2024-01-11T03:49:59;-3.50;99.90
14144;DHT22;7152;48.348;10.980;2024-01-11T03:52:25;-3.50;99.90
14144;DHT22;7152;48.348;10.980;2024-01-11T03:54:50;-3.50;99.90
14144;DHT22;7152;48.348;10.980;2024-01-11T03:57:16;-3.50;99.90
14144;DHT22;7152;48.348;10.980;2024-01-11T03:59:42;-3.60;99.90
14144;DHT22;7152;48.348;10.980;2024-01-11T04:02:09;-3.60;99.90
14144;DHT22;7152;48.348;10.980;2024-01-11T04:04:35;-3.60;99.90
14144;DHT22;7152;48.348;10.980;2024-01-11T04:07:00;-3.60;99.90
14144;DHT22;7152;48.348;10.980;2024-01-11T04:09:26;-3.70;99.90
14144;DHT22;7152;48.348;10.980;2024-01-11T04:11:52;-3.70;99.90
14144;DHT22;7152;48.348;10.980;2024-01-11T04:14:18;-3.70;99.90
14144;DHT22;7152;48.348;10.980;2024-01-11T04:16:44;-3.70;99.90
14144;DHT22;7152;48.348;10.980;2024-01-11T04:19:10;-3.70;99.90
14144;DHT22;7152;48.348;10.980;2024-01-11T04:21:36;-3.70;99.90
14144;DHT22;7152;48.348;10.980;2024-01-11T04:24:05;-3.60;99.90
14144;DHT22;7152;48.348;10.980;2024-01-11T04:26:32;-3.60;99.90
14144;DHT22;7152;48.348;10.980;2024-01-11T04:28:59;-3.50;99.90
14144;DHT22;7152;48.348;10.980;2024-01-11T04:31:26;-3.60;99.90
14144;DHT22;7152;48.348;10.980;2024-01-11T04:33:51;-3.60;99.90
14144;DHT22;7152;48.348;10.980;2024-01-11T04:36:17;-3.70;99.90
14144;DHT22;7152;48.348;10.980;2024-01-11T04:38:43;-3.70;99.90
14144;DHT22;7152;48.348;10.980;2024-01-11T04:41:14;-3.80;99.90
14144;DHT22;7152;48.348;10.980;2024-01-11T04:43:41;-3.80;99.90
14144;DHT22;7152;48.348;10.980;2024-01-11T04:46:18;-3.80;99.90
14144;DHT22;7152;48.348;10.980;2024-01-11T04:48:44;-3.80;99.90
14144;DHT22;7152;48.348;10.980;2024-01-11T04:51:10;-3.70;99.90
14144;DHT22;7152;48.348;10.980;2024-01-11T04:53:40;-3.70;99.90
14144;DHT22;7152;48.348;10.980;2024-01-11T04:56:07;-3.70;99.90
14144;DHT22;7152;48.348;10.980;2024-01-11T04:58:34;-3.70;99.90
14144;DHT22;7152;48.348;10.980;2024-01-11T05:01:00;-3.70;99.90
14144;DHT22;7152;48.348;10.980;2024-01-11T05:03:26;-3.80;99.90
14144;DHT22;7152;48.348;10.980;2024-01-11T05:05:52;-3.80;99.90
14144;DHT22;7152;48.348;10.980;2024-01-11T05:08:17;-3.70;99.90
14144;DHT22;7152;48.348;10.980;2024-01-11T05:10:43;-3.80;99.90
14144;DHT22;7152;48.348;10.980;2024-01-11T05:13:10;-3.70;99.90
14144;DHT22;7152;48.348;10.980;2024-01-11T05:15:36;-3.70;99.90
14144;DHT22;7152;48.348;10.980;2024-01-11T05:18:02;-3.80;99.90
14144;DHT22;7152;48.348;10.980;2024-01-11T05:20:28;-3.80;99.90
14144;DHT22;7152;48.348;10.980;2024-01-11T05:22:53;-3.80;99.90
14144;DHT22;7152;48.348;10.980;2024-01-11T05:25:20;-3.80;99.90
14144;DHT22;7152;48.348;10.980;2024-01-11T05:27:45;-3.90;99.90
14144;DHT22;7152;48.348;10.980;2024-01-11T05:30:11;-4.00;99.90
14144;DHT22;7152;48.348;10.980;2024-01-11T05:32:38;-3.90;99.90
14144;DHT22;7152;48.348;10.980;2024-01-11T05:35:04;-3.90;99.90
14144;DHT22;7152;48.348;10.980;2024-01-11T05:37:30;-4.00;99.90
14144;DHT22;7152;48.348;10.980;2024-01-11T05:39:55;-4.00;99.90
14144;DHT22;7152;48.348;10.980;2024-01-11T05:42:23;-3.90;99.90
14144;DHT22;7152;48.348;10.980;2024-01-11T05:44:50;-3.90;99.90
14144;DHT22;7152;48.348;10.980;2024-01-11T05:47:15;-4.00;99.90
14144;DHT22;7152;48.348;10.980;2024-01-11T05:49:41;-4.00;99.90
14144;DHT22;7152;48.348;10.980;2024-01-11T05:52:07;-4.00;99.90
14144;DHT22;7152;48.348;10.980;2024-01-11T05:54:33;-4.00;99.90
14144;DHT22;7152;48.348;10.980;2024-01-11T05:56:59;-4.00;99.90
14144;DHT22;7152;48.348;10.980;2024-01-11T05:59:25;-4.00;99.90
14144;DHT22;7152;48.348;10.980;2024-01-11T06:01:51;-4.00;99.90
14144;DHT22;7152;48.348;10.980;2024-01-11T06:04:17;-4.00;99.90
14144;DHT22;7152;48.348;10.980;2024-01-11T06:06:43;-4.00;99.90
14144;DHT22;7152;48.348;10.980;2024-01-11T06:09:09;-4.00;99.90
14144;DHT22;7152;48.348;10.980;2024-01-11T06:11:35;-4.00;99.90
14144;DHT22;7152;48.348;10.980;2024-01-11T06:14:01;-4.00;99.90
14144;DHT22;7152;48.348;10.980;2024-01-11T06:16:28;-4.00;99.90
14144;DHT22;7152;48.348;10.980;2024-01-11T06:18:54;-4.00;99.90
14144;DHT22;7152;48.348;10.980;2024-01-11T06:21:20;-4.10;99.90
14144;DHT22;7152;48.348;10.980;2024-01-11T16:35:49;-6.10;99.90
14144;DHT22;7152;48.348;10.980;2024-01-11T16:38:15;-4.80;99.90
14144;DHT22;7152;48.348;10.980;2024-01-11T16:40:42;-4.70;99.90
14144;DHT22;7152;48.348;10.980;2024-01-11T16:43:08;-4.70;99.90
14144;DHT22;7152;48.348;10.980;2024-01-11T16:45:36;-4.70;99.90
14144;DHT22;7152;48.348;10.980;2024-01-11T16:48:03;-4.60;99.90
14144;DHT22;7152;48.348;10.980;2024-01-11T16:50:32;-4.60;99.90
14144;DHT22;7152;48.348;10.980;2024-01-11T16:52:58;-4.60;99.90
14144;DHT22;7152;48.348;10.980;2024-01-11T16:55:24;-4.60;99.90
14144;DHT22;7152;48.348;10.980;2024-01-11T16:57:50;-4.60;99.90
14144;DHT22;7152;48.348;10.980;2024-01-11T17:00:16;-4.60;99.90
14144;DHT22;7152;48.348;10.980;2024-01-11T17:02:45;-4.60;99.90
14144;DHT22;7152;48.348;10.980;2024-01-11T17:05:11;-4.60;99.90
14144;DHT22;7152;48.348;10.980;2024-01-11T17:07:37;-4.60;99.90
14144;DHT22;7152;48.348;10.980;2024-01-11T17:10:03;-4.60;99.90
14144;DHT22;7152;48.348;10.980;2024-01-11T17:12:29;-4.60;99.90
14144;DHT22;7152;48.348;10.980;2024-01-11T17:14:55;-4.60;99.90
14144;DHT22;7152;48.348;10.980;2024-01-11T17:17:21;-4.50;99.90
14144;DHT22;7152;48.348;10.980;2024-01-11T17:19:46;-4.50;99.90
14144;DHT22;7152;48.348;10.980;2024-01-11T17:22:12;-4.50;99.90
14144;DHT22;7152;48.348;10.980;2024-01-11T17:24:38;-4.50;99.90
14144;DHT22;7152;48.348;10.980;2024-01-11T17:27:04;-4.50;99.90
14144;DHT22;7152;48.348;10.980;2024-01-11T17:29:36;-4.50;99.90
14144;DHT22;7152;48.348;10.980;2024-01-11T17:32:03;-4.50;99.90
14144;DHT22;7152;48.348;10.980;2024-01-11T17:34:29;-4.50;99.90
14144;DHT22;7152;48.348;10.980;2024-01-11T17:36:55;-4.50;99.90
14144;DHT22;7152;48.348;10.980;2024-01-11T17:39:22;-4.50;99.90
14144;DHT22;7152;48.348;10.980;2024-01-11T17:41:49;-4.50;99.90
14144;DHT22;7152;48.348;10.980;2024-01-11T17:44:15;-4.50;99.90
14144;DHT22;7152;48.348;10.980;2024-01-11T17:46:41;-4.50;99.90
14144;DHT22;7152;48.348;10.980;2024-01-11T17:49:12;-4.40;99.90
14144;DHT22;7152;48.348;10.980;2024-01-11T17:51:39;-4.40;99.90
14144;DHT22;7152;48.348;10.980;2024-01-11T17:54:05;-4.40;99.90
14144;DHT22;7152;48.348;10.980;2024-01-11T17:56:31;-4.30;99.90
14144;DHT22;7152;48.348;10.980;2024-01-11T17:59:02;-4.30;99.90
14144;DHT22;7152;48.348;10.980;2024-01-11T18:01:30;-4.30;99.90
14144;DHT22;7152;48.348;10.980;2024-01-11T18:03:56;-4.20;99.90
14144;DHT22;7152;48.348;10.980;2024-01-11T18:06:22;-4.20;99.90
14144;DHT22;7152;48.348;10.980;2024-01-11T18:08:48;-4.20;99.90
14144;DHT22;7152;48.348;10.980;2024-01-11T18:11:15;-4.10;99.90
14144;DHT22;7152;48.348;10.980;2024-01-11T18:13:40;-4.10;99.90
14144;DHT22;7152;48.348;10.980;2024-01-11T18:16:06;-4.00;99.90
14144;DHT22;7152;48.348;10.980;2024-01-11T18:18:33;-4.00;99.90
14144;DHT22;7152;48.348;10.980;2024-01-11T18:20:59;-4.00;99.90
14144;DHT22;7152;48.348;10.980;2024-01-11T18:23:28;-4.00;99.90
14144;DHT22;7152;48.348;10.980;2024-01-11T18:25:55;-3.90;99.90
14144;DHT22;7152;48.348;10.980;2024-01-11T18:28:21;-3.90;99.90
14144;DHT22;7152;48.348;10.980;2024-01-11T18:30:47;-3.90;99.90
14144;DHT22;7152;48.348;10.980;2024-01-11T18:33:13;-3.90;99.90
14144;DHT22;7152;48.348;10.980;2024-01-11T18:35:39;-3.80;99.90
14144;DHT22;7152;48.348;10.980;2024-01-11T18:38:05;-3.80;99.90
14144;DHT22;7152;48.348;10.980;2024-01-11T18:40:31;-3.70;99.90
14144;DHT22;7152;48.348;10.980;2024-01-11T18:42:57;-3.80;99.90
14144;DHT22;7152;48.348;10.980;2024-01-11T18:45:25;-3.70;99.90
14144;DHT22;7152;48.348;10.980;2024-01-11T18:47:51;-3.70;99.90
14144;DHT22;7152;48.348;10.980;2024-01-11T18:50:18;-3.70;99.90
14144;DHT22;7152;48.348;10.980;2024-01-11T18:52:44;-3.70;99.90
14144;DHT22;7152;48.348;10.980;2024-01-11T18:55:10;-3.70;99.90
14144;DHT22;7152;48.348;10.980;2024-01-11T18:57:36;-3.70;99.90
14144;DHT22;7152;48.348;10.980;2024-01-11T19:00:02;-3.70;99.90
14144;DHT22;7152;48.348;10.980;2024-01-11T19:02:31;-3.60;99.90
14144;DHT22;7152;48.348;10.980;2024-01-11T19:04:57;-3.60;99.90
14144;DHT22;7152;48.348;10.980;2024-01-11T19:07:23;-3.60;99.90
14144;DHT22;7152;48.348;10.980;2024-01-11T19:09:49;-3.60;99.90
14144;DHT22;7152;48.348;10.980;2024-01-11T19:12:14;-3.60;99.90
14144;DHT22;7152;48.348;10.980;2024-01-11T19:14:40;-3.60;99.90
14144;DHT22;7152;48.348;10.980;2024-01-11T19:17:06;-3.60;99.90
14144;DHT22;7152;48.348;10.980;2024-01-11T19:19:32;-3.60;99.90
14144;DHT22;7152;48.348;10.980;2024-01-11T19:21:58;-3.60;99.90
14144;DHT22;7152;48.348;10.980;2024-01-11T19:24:24;-3.60;99.90
14144;DHT22;7152;48.348;10.980;2024-01-11T19:26:50;-3.60;99.90
14144;DHT22;7152;48.348;10.980;2024-01-11T19:29:16;-3.60;99.90
14144;DHT22;7152;48.348;10.980;2024-01-11T19:31:42;-3.60;99.90
14144;DHT22;7152;48.348;10.980;2024-01-11T19:34:10;-3.50;99.90
14144;DHT22;7152;48.348;10.980;2024-01-11T19:36:38;-3.50;99.90
14144;DHT22;7152;48.348;10.980;2024-01-11T19:39:04;-3.50;99.90
14144;DHT22;7152;48.348;10.980;2024-01-11T19:41:30;-3.50;99.90
14144;DHT22;7152;48.348;10.980;2024-01-11T19:43:58;-3.50;99.90
14144;DHT22;7152;48.348;10.980;2024-01-11T19:46:24;-3.50;99.90
14144;DHT22;7152;48.348;10.980;2024-01-11T19:48:50;-3.50;99.90
14144;DHT22;7152;48.348;10.980;2024-01-11T19:51:16;-3.50;99.90
14144;DHT22;7152;48.348;10.980;2024-01-11T19:53:42;-3.50;99.90
14144;DHT22;7152;48.348;10.980;2024-01-11T19:56:21;-3.50;99.90
14144;DHT22;7152;48.348;10.980;2024-01-11T19:58:48;-3.50;99.90
14144;DHT22;7152;48.348;10.980;2024-01-11T20:01:14;-3.40;99.90
14144;DHT22;7152;48.348;10.980;2024-01-11T20:03:40;-3.50;99.90
14144;DHT22;7152;48.348;10.980;2024-01-11T20:06:07;-3.50;99.90
14144;DHT22;7152;48.348;10.980;2024-01-11T20:08:34;-3.50;99.90
14144;DHT22;7152;48.348;10.980;2024-01-11T20:11:01;-3.50;99.90
14144;DHT22;7152;48.348;10.980;2024-01-11T20:13:27;-3.50;99.90
14144;DHT22;7152;48.348;10.980;2024-01-11T20:15:53;-3.60;99.90
14144;DHT22;7152;48.348;10.980;2024-01-11T20:18:19;-3.60;99.90
14144;DHT22;7152;48.348;10.980;2024-01-11T20:20:45;-3.60;99.90
14144;DHT22;7152;48.348;10.980;2024-01-11T20:23:12;-3.50;99.90
14144;DHT22;7152;48.348;10.980;2024-01-11T20:25:39;-3.50;99.90
14144;DHT22;7152;48.348;10.980;2024-01-11T20:28:06;-3.50;99.90
14144;DHT22;7152;48.348;10.980;2024-01-11T20:30:35;-3.50;99.90
14144;DHT22;7152;48.348;10.980;2024-01-11T20:33:01;-3.60;99.90
14144;DHT22;7152;48.348;10.980;2024-01-11T20:35:29;-3.60;99.90
14144;DHT22;7152;48.348;10.980;2024-01-11T20:37:55;-3.70;99.90
14144;DHT22;7152;48.348;10.980;2024-01-11T20:40:21;-3.60;99.90
14144;DHT22;7152;48.348;10.980;2024-01-11T20:42:47;-3.60;99.90
14144;DHT22;7152;48.348;10.980;2024-01-11T20:45:13;-3.70;99.90
14144;DHT22;7152;48.348;10.980;2024-01-11T20:47:38;-3.70;99.90
14144;DHT22;7152;48.348;10.980;2024-01-11T20:50:05;-3.60;99.90
14144;DHT22;7152;48.348;10.980;2024-01-11T20:52:34;-3.60;99.90
14144;DHT22;7152;48.348;10.980;2024-01-11T20:54:59;-3.60;99.90
14144;DHT22;7152;48.348;10.980;2024-01-11T20:57:26;-3.60;99.90
14144;DHT22;7152;48.348;10.980;2024-01-11T20:59:51;-3.50;99.90
14144;DHT22;7152;48.348;10.980;2024-01-11T21:02:17;-3.50;99.90
14144;DHT22;7152;48.348;10.980;2024-01-11T21:04:43;-3.60;99.90
14144;DHT22;7152;48.348;10.980;2024-01-11T21:07:09;-3.50;99.90
14144;DHT22;7152;48.348;10.980;2024-01-11T21:09:35;-3.70;99.90
14144;DHT22;7152;48.348;10.980;2024-01-11T21:12:01;-3.60;99.90
14144;DHT22;7152;48.348;10.980;2024-01-11T21:14:27;-3.60;99.90
14144;DHT22;7152;48.348;10.980;2024-01-11T21:16:52;-3.50;99.90
14144;DHT22;7152;48.348;10.980;2024-01-11T21:19:18;-3.50;99.90
14144;DHT22;7152;48.348;10.980;2024-01-11T21:21:44;-3.50;99.90
14144;DHT22;7152;48.348;10.980;2024-01-11T21:24:11;-3.40;99.90
14144;DHT22;7152;48.348;10.980;2024-01-11T21:26:37;-3.40;99.90
14144;DHT22;7152;48.348;10.980;2024-01-11T21:29:03;-3.40;99.90
14144;DHT22;7152;48.348;10.980;2024-01-11T21:31:29;-3.40;99.90
14144;DHT22;7152;48.348;10.980;2024-01-11T21:33:59;-3.40;99.90
14144;DHT22;7152;48.348;10.980;2024-01-11T21:36:33;-3.40;99.90
14144;DHT22;7152;48.348;10.980;2024-01-11T21:39:00;-3.40;99.90
14144;DHT22;7152;48.348;10.980;2024-01-11T21:41:28;-3.40;99.90
14144;DHT22;7152;48.348;10.980;2024-01-11T21:43:55;-3.40;99.90
